Time;durP1;ratioP1;P1;durP2;ratioP2;P2;SDS_P1;SDS_P2;PMS_P1;PMS_P2;Temp;Humidity;BMP_temperature;BMP_pressure;BME280_temperature;BME280_humidity;BME280_pressure;Samples;Min_cycle;Max_cycle;Signal;HPM_P1;HPM_P2
2024/01/21 00:01:20;;;;;;;6.90;4.85;;;2.80;80.70;;;;;;5009028;28;20022;-86
2024/01/21 00:03:45;;;;;;;7.22;5.20;;;2.70;80.70;;;;;;5026654;28;20030;-81
2024/01/21 00:06:11;;;;;;;7.60;5.18;;;2.70;80.60;;;;;;4992568;28;20022;-79
2024/01/21 00:08:37;;;;;;;6.03;4.15;;;2.80;80.70;;;;;;5008719;28;20128;-82
2024/01/21 00:11:03;;;;;;;6.57;4.85;;;2.70;80.60;;;;;;5005067;28;20040;-81
2024/01/21 00:13:28;;;;;;;8.77;5.55;;;2.70;80.60;;;;;;5008143;28;20045;-75
2024/01/21 00:15:54;;;;;;;6.65;4.82;;;2.70;80.70;;;;;;5003019;28;20092;-75
2024/01/21 00:18:20;;;;;;;7.60;4.93;;;2.70;80.60;;;;;;4989169;28;20339;-81
2024/01/21 00:20:45;;;;;;;6.88;4.90;;;2.70;80.60;;;;;;5022449;28;20237;-75
2024/01/21 00:23:11;;;;;;;7.68;5.45;;;2.80;80.60;;;;;;5003866;28;20061;-76
2024/01/21 00:25:37;;;;;;;6.05;4.40;;;2.70;80.60;;;;;;4986267;28;20222;-80
2024/01/21 00:28:03;;;;;;;7.10;5.10;;;2.70;80.60;;;;;;5008827;28;20042;-81
2024/01/21 00:30:29;;;;;;;7.00;4.85;;;2.70;80.60;;;;;;5004137;28;20029;-81
2024/01/21 00:32:54;;;;;;;6.38;4.75;;;2.70;80.60;;;;;;4990929;28;20029;-76
2024/01/21 00:35:20;;;;;;;6.88;4.60;;;2.70;80.60;;;;;;5004461;28;20033;-81
2024/01/21 00:37:46;;;;;;;7.45;4.88;;;2.70;80.60;;;;;;5006334;28;20057;-79
2024/01/21 00:40:12;;;;;;;7.07;4.78;;;2.70;80.60;;;;;;5011428;28;20436;-76
2024/01/21 00:42:37;;;;;;;5.85;4.47;;;2.70;80.60;;;;;;4982771;28;20035;-80
2024/01/21 00:45:04;;;;;;;5.97;4.13;;;2.70;80.60;;;;;;4995336;28;20371;-80
2024/01/21 00:47:30;;;;;;;6.55;5.18;;;2.70;80.60;;;;;;4992268;28;20034;-81
2024/01/21 00:49:56;;;;;;;6.60;4.60;;;2.70;80.60;;;;;;4982939;28;20475;-91
2024/01/21 00:52:22;;;;;;;6.18;4.47;;;2.70;80.60;;;;;;4994623;28;20382;-76
2024/01/21 00:54:48;;;;;;;8.10;5.15;;;2.70;80.60;;;;;;4987442;28;20030;-91
2024/01/21 00:57:13;;;;;;;6.90;4.88;;;2.70;80.70;;;;;;5005070;28;20022;-76
2024/01/21 00:59:39;;;;;;;6.75;4.80;;;2.70;80.70;;;;;;4990364;28;20133;-81
2024/01/21 01:02:05;;;;;;;6.38;4.40;;;2.70;80.70;;;;;;5009124;28;20022;-80
2024/01/21 01:04:31;;;;;;;5.97;4.70;;;2.70;80.70;;;;;;5009335;28;20440;-76
2024/01/21 01:06:57;;;;;;;7.35;5.20;;;2.70;80.70;;;;;;5006124;28;20030;-93
2024/01/21 01:09:23;;;;;;;7.45;5.20;;;2.70;80.70;;;;;;4988891;28;20010;-91
2024/01/21 01:11:48;;;;;;;5.80;4.45;;;2.70;80.70;;;;;;5009404;28;20026;-76
2024/01/21 01:14:14;;;;;;;6.72;5.18;;;2.60;80.70;;;;;;4988626;28;20030;-92
2024/01/21 01:16:41;;;;;;;6.55;4.78;;;2.70;80.70;;;;;;5009280;28;20040;-93
2024/01/21 01:19:08;;;;;;;7.57;5.28;;;2.70;80.70;;;;;;5004044;28;20065;-95
2024/01/21 01:21:34;;;;;;;6.70;4.70;;;2.70;80.70;;;;;;5010924;28;20022;-91
2024/01/21 01:23:59;;;;;;;6.85;4.80;;;2.70;80.70;;;;;;4993292;28;20089;-92
2024/01/21 01:26:25;;;;;;;6.57;4.43;;;2.70;80.80;;;;;;5009599;28;20073;-81
2024/01/21 01:28:51;;;;;;;6.35;4.70;;;2.60;80.70;;;;;;4996044;28;20027;-75
2024/01/21 01:31:20;;;;;;;6.47;4.60;;;2.60;80.70;;;;;;4994333;28;20496;-81
2024/01/21 01:33:46;;;;;;;6.18;4.60;;;2.70;80.70;;;;;;5024816;28;20482;-93
2024/01/21 01:36:12;;;;;;;7.20;4.57;;;2.60;80.70;;;;;;5006739;28;20439;-79
2024/01/21 01:38:39;;;;;;;6.43;4.13;;;2.70;80.70;;;;;;4986047;28;20018;-81
2024/01/21 01:41:05;;;;;;;6.65;4.47;;;2.60;80.70;;;;;;4992053;28;20125;-93
2024/01/21 01:43:31;;;;;;;6.68;4.53;;;2.60;80.70;;;;;;5004616;28;20035;-93
2024/01/21 01:46:00;;;;;;;6.78;4.72;;;2.60;80.70;;;;;;4992348;28;20045;-80
2024/01/21 01:48:27;;;;;;;6.80;4.75;;;2.60;80.70;;;;;;4988444;28;20025;-75
2024/01/21 01:50:53;;;;;;;6.95;4.75;;;2.60;80.80;;;;;;4991024;28;20044;-80
2024/01/21 01:53:19;;;;;;;6.72;4.80;;;2.60;80.80;;;;;;5002509;28;20018;-80
2024/01/21 01:55:45;;;;;;;5.70;4.55;;;2.60;80.80;;;;;;5020406;28;20018;-81
2024/01/21 01:58:14;;;;;;;6.38;4.80;;;2.60;80.80;;;;;;5008654;28;20029;-80
2024/01/21 02:00:41;;;;;;;6.22;4.57;;;2.50;80.70;;;;;;4986055;28;20038;-75
2024/01/21 02:03:10;;;;;;;6.68;4.57;;;2.60;80.80;;;;;;5000309;28;20054;-80
2024/01/21 02:05:36;;;;;;;7.60;4.55;;;2.50;80.70;;;;;;4993292;28;20022;-80
2024/01/21 02:08:02;;;;;;;6.50;4.60;;;2.50;80.70;;;;;;4988496;28;20032;-81
2024/01/21 02:10:29;;;;;;;5.25;3.95;;;2.50;80.70;;;;;;4991717;28;20023;-94
2024/01/21 02:12:55;;;;;;;6.43;4.50;;;2.60;80.70;;;;;;5005583;28;20332;-80
2024/01/21 02:15:21;;;;;;;6.22;4.68;;;2.50;80.60;;;;;;5005745;28;20053;-80
2024/01/21 02:17:48;;;;;;;7.40;4.95;;;2.50;80.60;;;;;;5006390;28;20066;-75
2024/01/21 02:20:13;;;;;;;6.45;4.47;;;2.50;80.60;;;;;;5005315;28;20057;-80
2024/01/21 02:22:40;;;;;;;6.50;4.78;;;2.50;80.70;;;;;;4989641;28;20025;-80
2024/01/21 02:25:07;;;;;;;5.28;4.28;;;2.50;80.70;;;;;;4989710;28;20033;-75
2024/01/21 02:27:33;;;;;;;5.32;3.92;;;2.50;80.70;;;;;;5004180;28;20084;-75
2024/01/21 02:29:59;;;;;;;6.00;4.25;;;2.50;80.70;;;;;;4991898;28;20025;-81
2024/01/21 02:32:26;;;;;;;6.28;4.47;;;2.50;80.70;;;;;;4990410;28;20085;-75
2024/01/21 02:34:53;;;;;;;5.85;4.70;;;2.50;80.70;;;;;;4984996;28;20053;-80
2024/01/21 02:37:18;;;;;;;6.18;4.38;;;2.50;80.70;;;;;;4990760;28;20025;-79
2024/01/21 02:39:44;;;;;;;6.85;4.65;;;2.50;80.70;;;;;;4992086;28;20210;-75
2024/01/21 02:42:10;;;;;;;6.45;4.50;;;2.40;80.60;;;;;;5008128;28;20702;-75
2024/01/21 02:44:36;;;;;;;6.82;4.70;;;2.40;80.60;;;;;;5006297;28;20119;-75
2024/01/21 02:47:02;;;;;;;7.18;5.07;;;2.40;80.60;;;;;;4991468;28;20114;-80
2024/01/21 02:49:28;;;;;;;5.72;3.65;;;2.40;80.60;;;;;;5007302;28;20030;-75
2024/01/21 02:51:58;;;;;;;6.88;4.70;;;2.40;80.60;;;;;;5007347;28;20030;-81
2024/01/21 02:54:24;;;;;;;5.10;3.92;;;2.40;80.60;;;;;;5012409;28;20018;-80
2024/01/21 02:56:50;;;;;;;5.72;4.05;;;2.40;80.60;;;;;;4996470;28;20040;-81
2024/01/21 02:59:16;;;;;;;6.70;4.60;;;2.40;80.70;;;;;;5007983;28;20092;-80
2024/01/21 03:01:42;;;;;;;6.70;4.80;;;2.40;80.70;;;;;;5010219;28;20076;-75
2024/01/21 03:04:12;;;;;;;6.40;4.50;;;2.40;80.60;;;;;;5010454;28;20033;-76
2024/01/21 03:06:38;;;;;;;6.85;4.85;;;2.40;80.60;;;;;;5007944;28;20026;-75
2024/01/21 03:09:03;;;;;;;5.70;3.95;;;2.40;80.60;;;;;;5011490;28;20017;-80
2024/01/21 03:11:31;;;;;;;6.22;4.78;;;2.40;80.60;;;;;;5012708;28;20037;-80
2024/01/21 03:13:57;;;;;;;6.45;4.43;;;2.40;80.70;;;;;;4992841;28;20045;-80
2024/01/21 03:16:22;;;;;;;7.43;4.85;;;2.40;80.70;;;;;;4995618;28;20034;-76
2024/01/21 03:18:48;;;;;;;6.13;4.40;;;2.40;80.70;;;;;;5009360;28;20037;-80
2024/01/21 03:21:14;;;;;;;6.85;4.45;;;2.40;80.70;;;;;;4992917;28;20029;-75
2024/01/21 03:23:39;;;;;;;5.97;4.10;;;2.40;80.70;;;;;;4993276;28;20084;-75
2024/01/21 03:26:05;;;;;;;6.65;4.85;;;2.30;80.60;;;;;;5005721;28;20022;-80
2024/01/21 03:28:31;;;;;;;5.97;4.05;;;2.40;80.70;;;;;;5009222;28;20038;-90
2024/01/21 03:30:57;;;;;;;5.63;3.85;;;2.40;80.70;;;;;;5003857;28;20491;-81
2024/01/21 03:33:25;;;;;;;5.85;4.50;;;2.40;80.70;;;;;;5002757;28;20046;-75
2024/01/21 03:35:50;;;;;;;6.50;4.35;;;2.40;80.70;;;;;;5009209;28;20536;-81
2024/01/21 03:38:16;;;;;;;6.22;4.65;;;2.40;80.70;;;;;;5007758;28;20026;-80
2024/01/21 03:40:42;;;;;;;6.45;4.47;;;2.40;80.60;;;;;;5002000;28;20125;-75
2024/01/21 03:43:08;;;;;;;5.38;4.15;;;2.40;80.60;;;;;;5012422;28;20482;-80
2024/01/21 03:45:34;;;;;;;6.05;4.13;;;2.40;80.60;;;;;;5006126;28;20045;-79
2024/01/21 03:48:00;;;;;;;5.88;3.97;;;2.40;80.60;;;;;;4995236;28;20034;-80
2024/01/21 03:50:25;;;;;;;5.57;4.13;;;2.40;80.60;;;;;;4993506;28;20030;-80
2024/01/21 03:52:51;;;;;;;5.68;4.03;;;2.40;80.60;;;;;;4995250;28;20057;-91
2024/01/21 03:55:18;;;;;;;5.95;4.00;;;2.40;80.60;;;;;;5004487;28;20056;-76
2024/01/21 03:57:45;;;;;;;5.43;3.88;;;2.40;80.60;;;;;;4992032;28;20066;-92
2024/01/21 04:00:12;;;;;;;5.70;4.35;;;2.40;80.60;;;;;;4994754;28;20062;-92
2024/01/21 04:02:38;;;;;;;5.55;3.83;;;2.40;80.60;;;;;;5021532;28;20022;-75
2024/01/21 04:05:05;;;;;;;5.35;3.80;;;2.40;80.60;;;;;;5021783;28;20124;-80
2024/01/21 04:07:31;;;;;;;5.80;3.88;;;2.40;80.60;;;;;;5009885;28;20049;-80
2024/01/21 04:09:57;;;;;;;6.40;4.30;;;2.40;80.60;;;;;;5011566;28;20088;-80
2024/01/21 04:12:23;;;;;;;6.35;4.22;;;2.40;80.60;;;;;;5006962;28;20119;-90
2024/01/21 04:14:48;;;;;;;5.70;3.83;;;2.40;80.60;;;;;;4994674;28;20057;-78
2024/01/21 04:17:14;;;;;;;5.20;3.80;;;2.40;80.60;;;;;;5003505;28;20108;-80
2024/01/21 04:19:40;;;;;;;5.55;3.92;;;2.40;80.60;;;;;;4991388;28;20120;-80
2024/01/21 04:22:06;;;;;;;5.43;3.70;;;2.40;80.60;;;;;;5009949;28;20027;-90
2024/01/21 04:24:32;;;;;;;5.85;4.10;;;2.40;80.60;;;;;;5010377;28;20080;-81
2024/01/21 04:26:57;;;;;;;6.03;4.25;;;2.40;80.60;;;;;;5008381;28;20038;-75
2024/01/21 04:29:23;;;;;;;5.38;3.70;;;2.40;80.60;;;;;;4993346;28;20054;-81
2024/01/21 04:31:49;;;;;;;5.72;3.67;;;2.40;80.70;;;;;;4991963;28;20032;-75
2024/01/21 04:34:15;;;;;;;5.50;3.60;;;2.40;80.60;;;;;;5002185;28;20113;-90
2024/01/21 04:36:40;;;;;;;5.20;3.55;;;2.40;80.60;;;;;;5010074;28;20103;-90
2024/01/21 04:39:07;;;;;;;5.20;3.78;;;2.40;80.60;;;;;;5006785;28;20105;-75
2024/01/21 04:41:32;;;;;;;4.82;3.40;;;2.40;80.60;;;;;;4989864;28;20030;-75
2024/01/21 04:44:02;;;;;;;5.35;4.13;;;2.40;80.60;;;;;;4992410;28;20540;-75
2024/01/21 04:46:28;;;;;;;5.72;3.85;;;2.40;80.60;;;;;;4993394;28;20034;-81
2024/01/21 04:48:56;;;;;;;5.00;3.42;;;2.40;80.70;;;;;;5009177;28;20477;-90
2024/01/21 04:51:22;;;;;;;4.78;3.38;;;2.40;80.60;;;;;;5005114;28;20482;-75
2024/01/21 04:53:47;;;;;;;5.68;4.00;;;2.40;80.60;;;;;;5007981;28;20525;-75
2024/01/21 04:56:17;;;;;;;4.43;3.17;;;2.40;80.60;;;;;;5001939;28;20059;-75
2024/01/21 04:58:43;;;;;;;4.07;3.03;;;2.40;80.70;;;;;;5000600;28;20072;-90
2024/01/21 05:01:09;;;;;;;5.53;4.05;;;2.40;80.60;;;;;;4995532;28;20108;-81
2024/01/21 05:03:35;;;;;;;5.28;3.55;;;2.30;80.60;;;;;;4981112;28;20038;-75
2024/01/21 05:06:01;;;;;;;5.05;3.50;;;2.40;80.60;;;;;;5004977;28;20553;-80
2024/01/21 05:08:27;;;;;;;3.47;2.95;;;2.40;80.70;;;;;;5009729;28;20034;-80
2024/01/21 05:10:53;;;;;;;5.03;3.78;;;2.40;80.70;;;;;;4993382;28;20026;-90
2024/01/21 05:13:19;;;;;;;4.80;3.42;;;2.40;80.70;;;;;;4991680;28;20032;-75
2024/01/21 05:15:45;;;;;;;6.40;3.95;;;2.40;80.70;;;;;;4991557;28;20046;-75
2024/01/21 05:18:11;;;;;;;4.05;3.13;;;2.40;80.60;;;;;;5005293;28;20041;-90
2024/01/21 05:20:36;;;;;;;4.85;3.33;;;2.40;80.70;;;;;;4990348;28;20026;-80
2024/01/21 05:23:03;;;;;;;4.10;3.00;;;2.40;80.70;;;;;;4983675;28;20029;-75
2024/01/21 05:25:29;;;;;;;4.55;3.60;;;2.40;80.60;;;;;;4983980;28;20830;-81
2024/01/21 05:28:01;;;;;;;4.55;3.35;;;2.40;80.70;;;;;;4990092;28;20054;-80
2024/01/21 05:30:27;;;;;;;4.55;3.10;;;2.40;80.70;;;;;;5009036;28;20092;-80
2024/01/21 05:32:52;;;;;;;4.47;3.20;;;2.40;81.20;;;;;;5007841;28;20030;-75
2024/01/21 05:35:18;;;;;;;4.68;3.45;;;2.40;80.60;;;;;;4986537;28;20112;-75
2024/01/21 05:37:45;;;;;;;4.88;3.15;;;2.40;80.70;;;;;;5009339;28;20039;-75
2024/01/21 05:40:11;;;;;;;4.13;3.13;;;2.40;80.60;;;;;;5014285;28;20026;-75
2024/01/21 05:42:36;;;;;;;5.53;3.42;;;2.40;80.70;;;;;;4991821;28;20029;-81
2024/01/21 05:45:05;;;;;;;4.15;3.05;;;2.40;80.60;;;;;;4989362;28;20085;-81
2024/01/21 05:47:31;;;;;;;4.22;3.13;;;2.40;80.70;;;;;;4995261;28;20509;-75
2024/01/21 05:49:57;;;;;;;4.53;3.20;;;2.40;80.60;;;;;;5000573;28;20023;-80
2024/01/21 05:52:23;;;;;;;4.30;2.78;;;2.40;80.60;;;;;;4994003;28;20101;-89
2024/01/21 05:54:48;;;;;;;4.43;3.20;;;2.50;80.90;;;;;;5009739;28;20064;-91
2024/01/21 05:57:14;;;;;;;4.57;3.00;;;2.40;80.60;;;;;;4994347;28;20053;-81
2024/01/21 05:59:40;;;;;;;3.55;2.65;;;2.40;80.60;;;;;;5008558;28;20041;-87
2024/01/21 06:02:10;;;;;;;4.43;2.90;;;2.40;80.60;;;;;;5010145;28;20034;-88
2024/01/21 06:04:37;;;;;;;4.68;3.45;;;2.50;80.70;;;;;;4989770;28;20092;-75
2024/01/21 06:07:02;;;;;;;3.53;2.83;;;2.50;80.70;;;;;;5007675;28;20105;-89
2024/01/21 06:09:28;;;;;;;3.92;3.08;;;2.50;80.70;;;;;;4991968;28;20554;-81
2024/01/21 06:11:54;;;;;;;4.63;3.00;;;2.50;80.70;;;;;;4990060;28;20026;-75
2024/01/21 06:14:20;;;;;;;5.13;3.03;;;2.50;80.70;;;;;;5008009;28;20055;-88
2024/01/21 06:16:45;;;;;;;4.75;3.17;;;2.50;80.70;;;;;;4989756;28;20033;-81
2024/01/21 06:19:11;;;;;;;3.88;3.00;;;2.50;80.70;;;;;;5006977;28;20052;-80
2024/01/21 06:21:43;;;;;;;4.82;3.45;;;2.50;80.70;;;;;;5003789;28;20029;-81
2024/01/21 06:24:12;;;;;;;3.70;2.70;;;2.50;80.70;;;;;;5003362;28;20033;-75
2024/01/21 06:26:40;;;;;;;4.10;2.90;;;2.50;80.70;;;;;;5007219;28;20099;-88
2024/01/21 06:29:09;;;;;;;4.03;2.92;;;2.50;80.70;;;;;;5012529;28;20049;-88
2024/01/21 06:31:35;;;;;;;4.13;2.90;;;2.50;80.60;;;;;;4995203;28;20056;-88
2024/01/21 06:34:01;;;;;;;4.00;3.08;;;2.50;80.60;;;;;;4994362;28;20332;-82
2024/01/21 06:36:27;;;;;;;3.83;3.15;;;2.50;80.60;;;;;;5010607;28;20058;-75
2024/01/21 06:38:53;;;;;;;4.63;3.60;;;2.50;80.60;;;;;;5010633;28;20108;-80
2024/01/21 06:41:18;;;;;;;4.43;3.00;;;2.50;80.70;;;;;;4992192;28;20509;-80
2024/01/21 06:43:45;;;;;;;4.25;3.00;;;2.50;80.70;;;;;;4993079;28;20037;-74
2024/01/21 06:46:12;;;;;;;3.63;2.95;;;2.60;80.70;;;;;;5026296;28;20108;-75
2024/01/21 06:48:38;;;;;;;4.15;3.20;;;2.50;80.70;;;;;;4995452;28;20116;-81
2024/01/21 06:51:10;;;;;;;4.47;3.33;;;2.50;80.70;;;;;;5011780;28;20049;-81
2024/01/21 06:53:36;;;;;;;4.18;3.20;;;2.60;80.70;;;;;;4995491;28;20088;-80
2024/01/21 06:56:06;;;;;;;4.75;3.08;;;2.60;80.70;;;;;;5012453;28;20397;-80
2024/01/21 06:58:34;;;;;;;4.55;3.10;;;2.60;80.70;;;;;;5009635;28;20076;-81
2024/01/21 07:01:00;;;;;;;5.32;3.55;;;2.60;80.70;;;;;;4995601;28;20037;-76
2024/01/21 07:03:26;;;;;;;4.60;3.03;;;2.60;80.80;;;;;;5008737;28;20080;-81
2024/01/21 07:05:52;;;;;;;4.03;2.95;;;2.60;80.70;;;;;;5009067;28;20458;-75
2024/01/21 07:08:19;;;;;;;4.70;3.45;;;2.60;80.70;;;;;;4995336;28;20038;-80
2024/01/21 07:10:45;;;;;;;4.40;3.13;;;2.60;80.70;;;;;;4993631;28;20041;-81
2024/01/21 07:13:11;;;;;;;3.70;2.80;;;2.60;80.70;;;;;;5009587;28;20030;-80
2024/01/21 07:15:37;;;;;;;4.30;3.40;;;2.60;80.80;;;;;;5008798;28;20069;-80
2024/01/21 07:18:03;;;;;;;4.38;2.97;;;2.60;80.70;;;;;;5009536;28;20052;-88
2024/01/21 07:20:29;;;;;;;5.43;2.90;;;2.60;80.70;;;;;;4996461;28;20025;-81
2024/01/21 07:22:58;;;;;;;4.43;3.25;;;2.60;80.70;;;;;;5009531;28;20022;-88
2024/01/21 07:25:24;;;;;;;4.30;3.17;;;2.70;80.80;;;;;;5007498;28;20042;-75
2024/01/21 07:27:50;;;;;;;3.97;3.10;;;2.70;80.80;;;;;;4993368;28;20054;-75
2024/01/21 07:30:17;;;;;;;4.55;3.10;;;2.70;80.80;;;;;;4983373;28;20032;-80
2024/01/21 07:32:43;;;;;;;4.63;3.30;;;2.70;80.80;;;;;;5012732;28;20061;-75
2024/01/21 07:35:09;;;;;;;4.30;3.05;;;2.70;80.80;;;;;;4990520;28;20022;-81
2024/01/21 07:37:35;;;;;;;4.80;3.55;;;2.70;80.80;;;;;;4992699;28;20130;-81
2024/01/21 07:40:06;;;;;;;4.45;3.15;;;2.70;80.80;;;;;;5006710;28;20030;-81
2024/01/21 07:42:32;;;;;;;4.65;3.15;;;2.70;80.80;;;;;;4991468;28;20026;-81
2024/01/21 07:44:59;;;;;;;5.40;3.55;;;2.70;80.80;;;;;;5010414;28;20026;-89
2024/01/21 07:47:25;;;;;;;4.72;3.17;;;2.70;80.80;;;;;;5012296;28;20018;-81
2024/01/21 07:49:50;;;;;;;6.07;3.50;;;2.70;80.80;;;;;;4991988;28;20165;-81
2024/01/21 07:52:17;;;;;;;5.53;3.42;;;2.80;80.80;;;;;;5012131;28;20113;-81
2024/01/21 07:54:43;;;;;;;4.57;3.00;;;2.80;80.80;;;;;;5010787;28;20036;-89
2024/01/21 07:57:09;;;;;;;4.10;3.25;;;2.80;80.80;;;;;;5010768;28;20169;-87
2024/01/21 07:59:35;;;;;;;4.93;3.38;;;2.80;80.80;;;;;;5005198;28;20494;-80
2024/01/21 08:02:00;;;;;;;5.15;3.42;;;2.80;80.80;;;;;;5012352;28;20026;-88
2024/01/21 08:04:26;;;;;;;4.65;3.17;;;2.80;80.70;;;;;;5012243;28;20038;-80
2024/01/21 08:06:52;;;;;;;4.43;3.28;;;2.80;80.80;;;;;;4997319;28;20021;-81
2024/01/21 08:09:18;;;;;;;5.38;3.20;;;2.80;80.70;;;;;;4989392;28;20057;-81
2024/01/21 08:11:44;;;;;;;5.15;3.45;;;2.80;80.70;;;;;;5018306;28;20037;-81
2024/01/21 08:14:11;;;;;;;5.20;3.75;;;2.80;80.70;;;;;;5008506;28;20189;-87
2024/01/21 08:16:37;;;;;;;5.13;3.38;;;2.90;80.80;;;;;;5006636;28;20025;-89
2024/01/21 08:19:07;;;;;;;5.45;3.38;;;2.90;81.40;;;;;;4993674;28;20029;-83
2024/01/21 08:21:33;;;;;;;5.13;3.50;;;2.90;80.80;;;;;;4991532;28;20030;-76
2024/01/21 08:23:59;;;;;;;4.57;3.30;;;2.90;80.80;;;;;;5016154;28;20057;-84
2024/01/21 08:26:25;;;;;;;4.82;3.35;;;2.90;80.70;;;;;;5007301;28;20587;-76
2024/01/21 08:28:52;;;;;;;4.80;3.30;;;2.90;80.70;;;;;;4992747;28;20026;-82
2024/01/21 08:31:17;;;;;;;4.95;3.50;;;2.90;80.70;;;;;;5010691;28;20029;-76
2024/01/21 08:33:43;;;;;;;5.07;3.58;;;2.90;80.70;;;;;;4987614;28;20048;-81
2024/01/21 08:36:09;;;;;;;5.18;3.40;;;3.00;80.80;;;;;;5004688;28;20066;-76
2024/01/21 08:38:36;;;;;;;5.32;3.38;;;3.00;80.80;;;;;;4989467;28;20074;-89
2024/01/21 08:41:02;;;;;;;4.90;3.35;;;3.00;80.80;;;;;;5010490;28;20061;-79
2024/01/21 08:43:28;;;;;;;4.93;3.63;;;3.00;80.80;;;;;;5003504;28;20161;-75
2024/01/21 08:45:54;;;;;;;5.13;3.67;;;3.00;80.80;;;;;;5006998;28;20113;-76
2024/01/21 08:48:19;;;;;;;4.60;3.45;;;3.00;80.80;;;;;;4986972;28;20141;-76
2024/01/21 08:50:45;;;;;;;6.05;3.80;;;3.00;80.80;;;;;;4990160;28;20041;-83
2024/01/21 08:53:11;;;;;;;5.10;3.45;;;3.00;80.80;;;;;;4990483;28;20026;-76
2024/01/21 08:55:38;;;;;;;4.18;3.03;;;3.10;80.80;;;;;;5007299;28;20509;-76
2024/01/21 08:58:04;;;;;;;5.00;3.40;;;3.10;80.80;;;;;;4993564;28;20458;-76
2024/01/21 09:00:30;;;;;;;5.53;3.70;;;3.10;80.90;;;;;;4988482;28;20034;-76
2024/01/21 09:02:56;;;;;;;6.07;3.70;;;3.10;80.80;;;;;;4991965;28;20030;-90
2024/01/21 09:05:22;;;;;;;4.72;3.17;;;3.10;80.80;;;;;;4988553;28;20486;-81
2024/01/21 09:07:48;;;;;;;4.97;3.42;;;3.10;80.80;;;;;;4984691;28;21432;-82
2024/01/21 09:10:14;;;;;;;5.15;3.58;;;3.10;80.80;;;;;;5011005;28;20481;-92
2024/01/21 09:12:40;;;;;;;5.38;3.58;;;3.20;80.90;;;;;;5011368;28;20410;-80
2024/01/21 09:15:06;;;;;;;5.88;4.03;;;3.10;80.80;;;;;;4988013;28;20386;-90
2024/01/21 09:17:32;;;;;;;5.72;3.65;;;3.20;80.80;;;;;;5009093;28;20060;-82
2024/01/21 09:19:59;;;;;;;5.30;3.90;;;3.20;80.90;;;;;;5018224;28;20023;-89
2024/01/21 09:22:25;;;;;;;5.05;3.58;;;3.20;81.50;;;;;;5009245;28;20025;-80
2024/01/21 09:24:50;;;;;;;4.43;3.25;;;3.20;80.90;;;;;;5004853;28;20022;-89
2024/01/21 09:27:16;;;;;;;4.55;3.60;;;3.20;80.90;;;;;;5013656;28;20056;-87
2024/01/21 09:29:43;;;;;;;4.63;3.33;;;3.30;80.90;;;;;;5010412;28;20034;-81
2024/01/21 09:32:11;;;;;;;5.20;3.63;;;3.30;80.90;;;;;;5006325;28;20037;-84
2024/01/21 09:34:39;;;;;;;5.13;3.70;;;3.30;80.90;;;;;;4992863;28;20053;-84
2024/01/21 09:37:05;;;;;;;4.72;3.35;;;3.30;80.90;;;;;;5009031;28;20034;-86
2024/01/21 09:39:31;;;;;;;5.35;3.40;;;3.30;80.90;;;;;;4993749;28;20026;-92
2024/01/21 09:41:58;;;;;;;5.50;3.55;;;3.30;80.80;;;;;;5009596;28;20071;-81
2024/01/21 09:44:29;;;;;;;5.45;3.97;;;3.40;80.90;;;;;;5019820;28;20030;-81
2024/01/21 09:46:57;;;;;;;5.20;3.58;;;3.40;81.00;;;;;;5006038;28;20113;-75
2024/01/21 09:49:24;;;;;;;4.85;3.60;;;3.40;81.00;;;;;;5009685;28;20033;-81
2024/01/21 09:51:50;;;;;;;5.20;3.40;;;3.40;80.90;;;;;;4992212;28;20021;-80
2024/01/21 09:54:17;;;;;;;5.22;3.25;;;3.40;81.00;;;;;;4993336;28;20069;-80
2024/01/21 09:56:43;;;;;;;4.93;3.25;;;3.40;81.00;;;;;;4998279;28;20058;-79
2024/01/21 09:59:10;;;;;;;4.63;3.30;;;3.40;81.00;;;;;;5007366;28;20112;-81
2024/01/21 10:01:43;;;;;;;4.80;3.40;;;3.50;81.00;;;;;;5004143;28;20022;-91
2024/01/21 10:04:14;;;;;;;5.72;3.85;;;3.50;81.00;;;;;;5008170;28;20434;-86
2024/01/21 10:06:40;;;;;;;4.70;3.15;;;3.50;81.00;;;;;;5014951;28;20025;-81
2024/01/21 10:09:14;;;;;;;5.80;3.67;;;3.50;81.00;;;;;;5007284;28;20026;-82
2024/01/21 10:11:40;;;;;;;5.18;3.30;;;3.50;81.00;;;;;;4990696;28;20034;-81
2024/01/21 10:14:06;;;;;;;5.20;3.67;;;3.50;81.00;;;;;;5004828;28;20452;-77
2024/01/21 10:16:32;;;;;;;4.72;3.22;;;3.60;81.00;;;;;;4986389;28;20090;-82
2024/01/21 10:18:57;;;;;;;4.32;3.10;;;3.50;81.00;;;;;;4989442;28;20022;-82
2024/01/21 10:21:23;;;;;;;4.13;3.30;;;3.60;81.00;;;;;;4989386;28;20358;-76
2024/01/21 10:23:49;;;;;;;4.78;3.25;;;3.60;81.00;;;;;;5003515;28;20040;-78
2024/01/21 10:26:15;;;;;;;4.93;3.60;;;3.60;81.00;;;;;;5019251;28;20030;-82
2024/01/21 10:28:41;;;;;;;4.72;3.28;;;3.60;81.00;;;;;;5009048;28;20050;-82
2024/01/21 10:31:08;;;;;;;4.43;3.28;;;3.70;81.00;;;;;;4999412;28;20034;-82
2024/01/21 10:33:34;;;;;;;4.75;3.25;;;3.70;80.90;;;;;;4992285;28;20478;-76
2024/01/21 10:36:03;;;;;;;4.80;3.50;;;3.70;80.90;;;;;;4994782;28;20117;-82
2024/01/21 10:38:33;;;;;;;4.22;3.60;;;3.70;80.90;;;;;;5006943;28;20029;-82
2024/01/21 10:41:00;;;;;;;5.05;3.30;;;3.70;80.80;;;;;;4992339;28;20022;-80
2024/01/21 10:43:29;;;;;;;4.68;3.40;;;3.80;80.90;;;;;;4991297;28;20030;-82
2024/01/21 10:45:56;;;;;;;5.25;3.13;;;3.80;80.80;;;;;;5017605;28;20018;-76
2024/01/21 10:48:23;;;;;;;4.85;3.13;;;3.80;80.80;;;;;;4992203;28;20022;-76
2024/01/21 10:50:51;;;;;;;4.68;3.20;;;3.80;80.70;;;;;;5005622;28;20030;-81
2024/01/21 10:53:17;;;;;;;5.30;3.40;;;3.80;80.70;;;;;;5004262;28;20029;-89
2024/01/21 10:55:44;;;;;;;4.72;3.40;;;3.80;80.60;;;;;;5002537;28;20038;-82
2024/01/21 10:58:11;;;;;;;4.78;3.40;;;3.90;80.70;;;;;;5001383;28;20057;-88
2024/01/21 11:00:38;;;;;;;5.10;3.55;;;3.80;80.60;;;;;;4989893;28;20021;-77
2024/01/21 11:03:25;;;;;;;5.68;3.67;;;3.90;80.70;;;;;;4988460;28;20052;-76
2024/01/21 11:06:03;;;;;;;4.68;3.17;;;3.90;80.70;;;;;;5009268;28;20098;-82
2024/01/21 11:08:29;;;;;;;4.53;3.05;;;3.90;80.60;;;;;;5000955;28;20034;-90
2024/01/21 11:11:14;;;;;;;5.30;3.22;;;3.90;80.60;;;;;;5006591;28;20053;-81
2024/01/21 11:13:45;;;;;;;4.28;3.17;;;3.90;80.60;;;;;;5007316;28;20037;-76
2024/01/21 11:16:33;;;;;;;4.97;3.60;;;3.90;80.50;;;;;;4985181;28;20121;-81
2024/01/21 11:19:09;;;;;;;4.85;3.17;;;4.00;80.60;;;;;;5003507;28;20169;-76
2024/01/21 11:21:59;;;;;;;4.93;3.35;;;4.00;80.60;;;;;;5004180;28;20054;-82
2024/01/21 11:24:31;;;;;;;4.50;3.40;;;4.00;80.60;;;;;;5002154;28;20053;-82
2024/01/21 11:26:58;;;;;;;4.07;3.13;;;4.00;80.50;;;;;;4992334;28;20104;-88
2024/01/21 11:29:32;;;;;;;4.50;3.30;;;4.00;80.50;;;;;;5002852;28;20052;-81
2024/01/21 11:31:58;;;;;;;4.18;3.17;;;4.00;80.50;;;;;;5002360;28;20026;-77
2024/01/21 11:34:25;;;;;;;4.20;3.13;;;4.00;80.40;;;;;;4988512;28;20060;-90
2024/01/21 11:36:51;;;;;;;4.30;3.10;;;4.00;80.40;;;;;;5010710;28;20109;-84
2024/01/21 11:39:23;;;;;;;4.85;3.50;;;4.10;80.50;;;;;;5004981;28;20089;-81
2024/01/21 11:41:49;;;;;;;4.70;3.05;;;4.10;80.50;;;;;;5022583;28;20117;-77
2024/01/21 11:44:24;;;;;;;4.43;3.17;;;4.10;80.40;;;;;;5002760;28;20074;-90
2024/01/21 11:46:50;;;;;;;6.15;3.60;;;4.10;80.40;;;;;;5009729;28;20452;-90
2024/01/21 11:49:16;;;;;;;3.97;3.17;;;4.10;80.40;;;;;;4985874;28;20015;-82
2024/01/21 11:51:44;;;;;;;4.90;3.38;;;4.10;80.40;;;;;;4983108;28;20109;-82
2024/01/21 11:54:10;;;;;;;5.50;3.78;;;4.20;80.40;;;;;;5006784;28;20105;-76
2024/01/21 11:56:36;;;;;;;3.95;3.38;;;4.20;80.40;;;;;;4997097;28;20041;-84
2024/01/21 11:59:08;;;;;;;4.28;3.20;;;4.20;80.40;;;;;;5010939;28;20026;-90
2024/01/21 12:01:35;;;;;;;4.80;3.33;;;4.20;80.40;;;;;;4996704;28;20113;-77
2024/01/21 12:04:05;;;;;;;4.25;2.97;;;4.20;80.40;;;;;;4995907;28;20064;-90
2024/01/21 12:06:41;;;;;;;5.15;3.85;;;4.30;80.40;;;;;;5007960;28;20034;-77
2024/01/21 12:09:10;;;;;;;4.85;3.35;;;4.30;81.00;;;;;;4992864;28;20051;-80
2024/01/21 12:11:37;;;;;;;4.38;3.13;;;4.30;80.40;;;;;;5009280;28;20494;-77
2024/01/21 12:14:13;;;;;;;5.15;3.75;;;4.30;80.40;;;;;;4994979;28;20096;-93
2024/01/21 12:16:40;;;;;;;4.82;3.45;;;4.30;80.40;;;;;;5012473;28;20021;-87
2024/01/21 12:19:06;;;;;;;5.70;3.75;;;4.30;80.40;;;;;;5026539;28;20122;-85
2024/01/21 12:21:32;;;;;;;5.38;3.75;;;4.30;80.30;;;;;;4992801;28;20117;-75
2024/01/21 12:24:02;;;;;;;4.00;2.92;;;4.30;80.30;;;;;;4989017;28;20030;-86
2024/01/21 12:26:28;;;;;;;4.28;2.95;;;4.30;80.30;;;;;;5000004;28;20370;-82
2024/01/21 12:28:58;;;;;;;5.03;3.70;;;4.30;80.30;;;;;;5008609;28;20034;-81
2024/01/21 12:31:35;;;;;;;4.75;3.40;;;4.40;80.40;;;;;;4985236;28;20030;-77
2024/01/21 12:34:03;;;;;;;4.95;3.60;;;4.40;80.30;;;;;;5006758;28;20089;-75
2024/01/21 12:36:33;;;;;;;4.78;3.17;;;4.40;80.30;;;;;;5000459;28;20030;-77
2024/01/21 12:39:00;;;;;;;4.43;3.33;;;4.40;80.30;;;;;;4998030;28;20034;-79
2024/01/21 12:41:26;;;;;;;4.20;3.08;;;4.40;80.30;;;;;;5003607;28;20030;-76
2024/01/21 12:43:52;;;;;;;4.78;3.15;;;4.40;80.30;;;;;;5007859;28;20754;-76
2024/01/21 12:46:20;;;;;;;4.93;2.95;;;4.40;80.30;;;;;;5011839;28;20052;-80
2024/01/21 12:48:47;;;;;;;4.65;3.30;;;4.40;80.30;;;;;;4992668;28;20346;-88
2024/01/21 12:51:14;;;;;;;4.72;3.20;;;4.50;80.90;;;;;;5015493;28;20045;-80
2024/01/21 12:53:41;;;;;;;4.82;3.47;;;4.50;80.30;;;;;;5008656;28;20035;-82
2024/01/21 12:56:07;;;;;;;5.00;3.65;;;4.50;80.30;;;;;;4999434;28;20029;-81